sensor_id;sensor_type;location;lat;lon;timestamp;P1;durP1;ratioP1;P2;durP2;ratioP2
82163;SDS011;71736;38.734;-9.138;2023-08-12T00:01:18;6.90;;;2.20;;
82163;SDS011;71736;38.734;-9.138;2023-08-12T00:03:46;9.60;;;2.70;;
82163;SDS011;71736;38.734;-9.138;2023-08-12T00:06:13;5.60;;;2.10;;
82163;SDS011;71736;38.734;-9.138;2023-08-12T00:08:38;7.70;;;3.20;;
82163;SDS011;71736;38.734;-9.138;2023-08-12T00:11:04;6.90;;;2.00;;
82163;SDS011;71736;38.734;-9.138;2023-08-12T00:13:29;6.80;;;2.50;;
82163;SDS011;71736;38.734;-9.138;2023-08-12T00:15:55;10.70;;;2.30;;
82163;SDS011;71736;38.734;-9.138;2023-08-12T00:18:21;6.30;;;2.10;;
82163;SDS011;71736;38.734;-9.138;2023-08-12T00:20:47;10.00;;;2.40;;
82163;SDS011;71736;38.734;-9.138;2023-08-12T00:23:12;5.80;;;2.10;;
82163;SDS011;71736;38.734;-9.138;2023-08-12T00:25:38;7.80;;;2.30;;
82163;SDS011;71736;38.734;-9.138;2023-08-12T00:28:04;15.40;;;2.70;;
82163;SDS011;71736;38.734;-9.138;2023-08-12T00:30:30;6.80;;;1.70;;
82163;SDS011;71736;38.734;-9.138;2023-08-12T00:32:55;7.90;;;2.00;;
82163;SDS011;71736;38.734;-9.138;2023-08-12T00:35:21;3.20;;;1.60;;
82163;SDS011;71736;38.734;-9.138;2023-08-12T00:37:46;7.00;;;1.30;;
82163;SDS011;71736;38.734;-9.138;2023-08-12T00:40:12;5.90;;;1.60;;
82163;SDS011;71736;38.734;-9.138;2023-08-12T00:42:38;8.30;;;2.10;;
82163;SDS011;71736;38.734;-9.138;2023-08-12T00:45:05;5.10;;;1.40;;
82163;SDS011;71736;38.734;-9.138;2023-08-12T00:47:35;7.10;;;1.50;;
82163;SDS011;71736;38.734;-9.138;2023-08-12T00:50:01;6.50;;;1.50;;
82163;SDS011;71736;38.734;-9.138;2023-08-12T00:52:26;4.40;;;1.60;;
82163;SDS011;71736;38.734;-9.138;2023-08-12T00:54:52;3.90;;;1.20;;
82163;SDS011;71736;38.734;-9.138;2023-08-12T00:57:18;6.40;;;1.20;;
82163;SDS011;71736;38.734;-9.138;2023-08-12T00:59:44;4.20;;;1.40;;
82163;SDS011;71736;38.734;-9.138;2023-08-12T01:02:10;2.70;;;1.10;;
82163;SDS011;71736;38.734;-9.138;2023-08-12T01:04:37;4.30;;;1.40;;
82163;SDS011;71736;38.734;-9.138;2023-08-12T01:07:03;4.20;;;1.20;;
82163;SDS011;71736;38.734;-9.138;2023-08-12T01:09:29;2.10;;;1.00;;
82163;SDS011;71736;38.734;-9.138;2023-08-12T01:11:57;2.10;;;1.00;;
82163;SDS011;71736;38.734;-9.138;2023-08-12T01:14:33;4.20;;;0.50;;
82163;SDS011;71736;38.734;-9.138;2023-08-12T01:17:04;4.20;;;1.20;;
82163;SDS011;71736;38.734;-9.138;2023-08-12T01:19:38;2.70;;;0.80;;
82163;SDS011;71736;38.734;-9.138;2023-08-12T01:22:06;2.30;;;0.90;;
82163;SDS011;71736;38.734;-9.138;2023-08-12T01:24:34;3.00;;;0.80;;
82163;SDS011;71736;38.734;-9.138;2023-08-12T01:27:04;2.60;;;0.80;;
82163;SDS011;71736;38.734;-9.138;2023-08-12T01:29:33;2.00;;;0.60;;
82163;SDS011;71736;38.734;-9.138;2023-08-12T01:35:25;2.50;;;0.80;;
82163;SDS011;71736;38.734;-9.138;2023-08-12T01:37:52;2.80;;;0.90;;
82163;SDS011;71736;38.734;-9.138;2023-08-12T01:40:19;1.60;;;0.50;;
82163;SDS011;71736;38.734;-9.138;2023-08-12T01:42:45;2.60;;;0.60;;
82163;SDS011;71736;38.734;-9.138;2023-08-12T01:45:11;2.10;;;0.50;;
82163;SDS011;71736;38.734;-9.138;2023-08-12T01:47:36;1.00;;;0.30;;
82163;SDS011;71736;38.734;-9.138;2023-08-12T01:50:02;1.70;;;0.50;;
82163;SDS011;71736;38.734;-9.138;2023-08-12T01:52:28;1.20;;;0.50;;
82163;SDS011;71736;38.734;-9.138;2023-08-12T01:54:54;0.80;;;0.30;;
82163;SDS011;71736;38.734;-9.138;2023-08-12T01:57:20;0.80;;;0.40;;
82163;SDS011;71736;38.734;-9.138;2023-08-12T01:59:45;0.80;;;0.40;;
82163;SDS011;71736;38.734;-9.138;2023-08-12T02:02:11;1.20;;;0.40;;
82163;SDS011;71736;38.734;-9.138;2023-08-12T02:04:37;0.60;;;0.30;;
82163;SDS011;71736;38.734;-9.138;2023-08-12T02:07:05;1.40;;;0.50;;
82163;SDS011;71736;38.734;-9.138;2023-08-12T02:09:30;0.80;;;0.30;;
82163;SDS011;71736;38.734;-9.138;2023-08-12T02:11:56;3.50;;;0.70;;
82163;SDS011;71736;38.734;-9.138;2023-08-12T02:14:22;1.90;;;0.60;;
82163;SDS011;71736;38.734;-9.138;2023-08-12T02:16:47;0.80;;;0.50;;
82163;SDS011;71736;38.734;-9.138;2023-08-12T02:19:13;1.10;;;0.40;;
82163;SDS011;71736;38.734;-9.138;2023-08-12T02:21:38;1.20;;;0.50;;
82163;SDS011;71736;38.734;-9.138;2023-08-12T02:24:04;1.20;;;0.40;;
82163;SDS011;71736;38.734;-9.138;2023-08-12T02:26:30;1.20;;;0.50;;
82163;SDS011;71736;38.734;-9.138;2023-08-12T02:28:55;2.00;;;0.70;;
82163;SDS011;71736;38.734;-9.138;2023-08-12T02:31:21;1.30;;;0.60;;
82163;SDS011;71736;38.734;-9.138;2023-08-12T02:33:46;3.70;;;0.80;;
82163;SDS011;71736;38.734;-9.138;2023-08-12T02:36:12;2.90;;;0.60;;
82163;SDS011;71736;38.734;-9.138;2023-08-12T02:38:37;1.60;;;0.50;;
82163;SDS011;71736;38.734;-9.138;2023-08-12T02:41:03;1.70;;;0.50;;
82163;SDS011;71736;38.734;-9.138;2023-08-12T02:43:28;2.20;;;0.80;;
82163;SDS011;71736;38.734;-9.138;2023-08-12T02:45:54;1.60;;;0.60;;
82163;SDS011;71736;38.734;-9.138;2023-08-12T02:48:19;1.60;;;0.70;;
82163;SDS011;71736;38.734;-9.138;2023-08-12T02:50:45;4.30;;;0.90;;
82163;SDS011;71736;38.734;-9.138;2023-08-12T02:53:10;1.50;;;0.60;;
82163;SDS011;71736;38.734;-9.138;2023-08-12T02:55:36;1.20;;;0.60;;
82163;SDS011;71736;38.734;-9.138;2023-08-12T03:00:28;1.00;;;0.70;;
82163;SDS011;71736;38.734;-9.138;2023-08-12T03:02:54;1.00;;;0.60;;
82163;SDS011;71736;38.734;-9.138;2023-08-12T03:05:20;1.30;;;0.60;;
82163;SDS011;71736;38.734;-9.138;2023-08-12T03:07:46;1.20;;;0.40;;
82163;SDS011;71736;38.734;-9.138;2023-08-12T03:10:12;0.50;;;0.30;;
82163;SDS011;71736;38.734;-9.138;2023-08-12T03:12:38;1.10;;;0.30;;
82163;SDS011;71736;38.734;-9.138;2023-08-12T03:15:05;1.80;;;0.60;;
82163;SDS011;71736;38.734;-9.138;2023-08-12T03:17:35;0.70;;;0.60;;
82163;SDS011;71736;38.734;-9.138;2023-08-12T03:20:00;1.20;;;0.40;;
82163;SDS011;71736;38.734;-9.138;2023-08-12T03:22:29;1.00;;;0.40;;
82163;SDS011;71736;38.734;-9.138;2023-08-12T03:24:55;1.10;;;0.50;;
82163;SDS011;71736;38.734;-9.138;2023-08-12T03:27:20;1.00;;;0.50;;
82163;SDS011;71736;38.734;-9.138;2023-08-12T03:29:46;0.60;;;0.30;;
82163;SDS011;71736;38.734;-9.138;2023-08-12T03:32:12;1.20;;;0.40;;
82163;SDS011;71736;38.734;-9.138;2023-08-12T03:34:38;1.40;;;0.40;;
82163;SDS011;71736;38.734;-9.138;2023-08-12T03:37:04;1.50;;;0.50;;
82163;SDS011;71736;38.734;-9.138;2023-08-12T03:39:29;0.20;;;0.10;;
82163;SDS011;71736;38.734;-9.138;2023-08-12T03:41:55;0.80;;;0.20;;
82163;SDS011;71736;38.734;-9.138;2023-08-12T03:44:20;1.10;;;0.30;;
82163;SDS011;71736;38.734;-9.138;2023-08-12T03:46:46;0.80;;;0.50;;
82163;SDS011;71736;38.734;-9.138;2023-08-12T03:49:11;1.70;;;0.40;;
82163;SDS011;71736;38.734;-9.138;2023-08-12T03:51:36;0.90;;;0.30;;
82163;SDS011;71736;38.734;-9.138;2023-08-12T03:54:02;1.80;;;0.60;;
82163;SDS011;71736;38.734;-9.138;2023-08-12T03:56:29;0.70;;;0.30;;
82163;SDS011;71736;38.734;-9.138;2023-08-12T03:58:54;0.30;;;0.10;;
82163;SDS011;71736;38.734;-9.138;2023-08-12T04:01:20;0.60;;;0.20;;
82163;SDS011;71736;38.734;-9.138;2023-08-12T04:03:46;0.70;;;0.20;;
82163;SDS011;71736;38.734;-9.138;2023-08-12T04:06:12;0.80;;;0.30;;
82163;SDS011;71736;38.734;-9.138;2023-08-12T04:08:38;1.00;;;0.30;;
82163;SDS011;71736;38.734;-9.138;2023-08-12T04:11:03;1.00;;;0.30;;
82163;SDS011;71736;38.734;-9.138;2023-08-12T04:13:29;1.70;;;0.70;;
82163;SDS011;71736;38.734;-9.138;2023-08-12T04:15:55;2.20;;;0.50;;
82163;SDS011;71736;38.734;-9.138;2023-08-12T04:18:20;1.20;;;0.40;;
82163;SDS011;71736;38.734;-9.138;2023-08-12T04:20:47;1.20;;;0.30;;
82163;SDS011;71736;38.734;-9.138;2023-08-12T04:23:14;1.20;;;0.50;;
82163;SDS011;71736;38.734;-9.138;2023-08-12T04:25:40;1.20;;;0.40;;
82163;SDS011;71736;38.734;-9.138;2023-08-12T04:28:08;1.30;;;0.40;;
82163;SDS011;71736;38.734;-9.138;2023-08-12T04:33:00;1.30;;;0.60;;
82163;SDS011;71736;38.734;-9.138;2023-08-12T04:35:26;1.50;;;0.50;;
82163;SDS011;71736;38.734;-9.138;2023-08-12T04:37:51;1.00;;;0.30;;
82163;SDS011;71736;38.734;-9.138;2023-08-12T04:40:17;1.00;;;0.40;;
82163;SDS011;71736;38.734;-9.138;2023-08-12T04:42:42;0.70;;;0.30;;
82163;SDS011;71736;38.734;-9.138;2023-08-12T04:45:08;1.80;;;0.40;;
82163;SDS011;71736;38.734;-9.138;2023-08-12T04:47:34;0.60;;;0.20;;
82163;SDS011;71736;38.734;-9.138;2023-08-12T04:49:59;0.90;;;0.30;;
82163;SDS011;71736;38.734;-9.138;2023-08-12T04:52:25;0.90;;;0.40;;
82163;SDS011;71736;38.734;-9.138;2023-08-12T04:54:52;0.30;;;0.20;;
82163;SDS011;71736;38.734;-9.138;2023-08-12T04:57:18;0.70;;;0.20;;
82163;SDS011;71736;38.734;-9.138;2023-08-12T04:59:44;0.70;;;0.20;;
82163;SDS011;71736;38.734;-9.138;2023-08-12T05:02:09;1.40;;;0.30;;
82163;SDS011;71736;38.734;-9.138;2023-08-12T05:04:35;0.80;;;0.10;;
82163;SDS011;71736;38.734;-9.138;2023-08-12T05:07:00;0.70;;;0.30;;
82163;SDS011;71736;38.734;-9.138;2023-08-12T05:09:26;1.20;;;0.30;;
82163;SDS011;71736;38.734;-9.138;2023-08-12T05:11:51;0.50;;;0.20;;
82163;SDS011;71736;38.734;-9.138;2023-08-12T05:14:17;2.00;;;0.20;;
82163;SDS011;71736;38.734;-9.138;2023-08-12T05:16:42;0.70;;;0.20;;
82163;SDS011;71736;38.734;-9.138;2023-08-12T05:19:08;0.70;;;0.30;;
82163;SDS011;71736;38.734;-9.138;2023-08-12T05:21:33;0.70;;;0.60;;
82163;SDS011;71736;38.734;-9.138;2023-08-12T05:23:59;2.20;;;0.50;;
82163;SDS011;71736;38.734;-9.138;2023-08-12T05:26:24;1.00;;;0.20;;
82163;SDS011;71736;38.734;-9.138;2023-08-12T05:28:50;0.80;;;0.30;;
82163;SDS011;71736;38.734;-9.138;2023-08-12T05:31:15;0.30;;;0.20;;
82163;SDS011;71736;38.734;-9.138;2023-08-12T05:33:41;1.20;;;0.30;;
82163;SDS011;71736;38.734;-9.138;2023-08-12T05:36:06;1.60;;;0.60;;
82163;SDS011;71736;38.734;-9.138;2023-08-12T05:38:32;1.60;;;0.70;;
82163;SDS011;71736;38.734;-9.138;2023-08-12T05:40:57;1.20;;;0.30;;
82163;SDS011;71736;38.734;-9.138;2023-08-12T05:43:23;0.70;;;0.20;;
82163;SDS011;71736;38.734;-9.138;2023-08-12T05:45:48;1.40;;;0.30;;
82163;SDS011;71736;38.734;-9.138;2023-08-12T05:48:14;0.50;;;0.20;;
82163;SDS011;71736;38.734;-9.138;2023-08-12T05:50:40;1.00;;;0.30;;
82163;SDS011;71736;38.734;-9.138;2023-08-12T05:53:05;1.10;;;0.30;;
82163;SDS011;71736;38.734;-9.138;2023-08-12T05:55:32;4.70;;;0.50;;
82163;SDS011;71736;38.734;-9.138;2023-08-12T05:57:59;0.70;;;0.20;;
82163;SDS011;71736;38.734;-9.138;2023-08-12T06:00:25;0.80;;;0.30;;
82163;SDS011;71736;38.734;-9.138;2023-08-12T06:02:50;1.90;;;0.30;;
82163;SDS011;71736;38.734;-9.138;2023-08-12T06:05:16;1.10;;;0.30;;
82163;SDS011;71736;38.734;-9.138;2023-08-12T06:07:41;1.00;;;0.40;;
82163;SDS011;71736;38.734;-9.138;2023-08-12T06:10:07;0.90;;;0.20;;
82163;SDS011;71736;38.734;-9.138;2023-08-12T06:12:33;1.10;;;0.40;;
82163;SDS011;71736;38.734;-9.138;2023-08-12T06:14:58;0.50;;;0.20;;
82163;SDS011;71736;38.734;-9.138;2023-08-12T06:17:26;0.60;;;0.30;;
82163;SDS011;71736;38.734;-9.138;2023-08-12T06:19:51;1.20;;;0.40;;
82163;SDS011;71736;38.734;-9.138;2023-08-12T06:22:17;0.30;;;0.10;;
82163;SDS011;71736;38.734;-9.138;2023-08-12T06:24:42;1.70;;;0.50;;
82163;SDS011;71736;38.734;-9.138;2023-08-12T06:27:08;1.70;;;0.30;;
82163;SDS011;71736;38.734;-9.138;2023-08-12T06:29:33;1.10;;;0.40;;
82163;SDS011;71736;38.734;-9.138;2023-08-12T06:31:59;1.50;;;0.40;;
82163;SDS011;71736;38.734;-9.138;2023-08-12T06:34:24;1.50;;;0.30;;
82163;SDS011;71736;38.734;-9.138;2023-08-12T06:36:50;3.30;;;1.50;;
82163;SDS011;71736;38.734;-9.138;2023-08-12T06:39:15;1.90;;;0.70;;
82163;SDS011;71736;38.734;-9.138;2023-08-12T06:41:41;0.10;;;0.10;;
82163;SDS011;71736;38.734;-9.138;2023-08-12T06:44:06;0.60;;;0.20;;
82163;SDS011;71736;38.734;-9.138;2023-08-12T06:46:32;0.80;;;0.20;;
82163;SDS011;71736;38.734;-9.138;2023-08-12T06:48:58;1.10;;;0.20;;
82163;SDS011;71736;38.734;-9.138;2023-08-12T06:51:24;0.90;;;0.30;;
82163;SDS011;71736;38.734;-9.138;2023-08-12T06:53:49;4.90;;;0.30;;
82163;SDS011;71736;38.734;-9.138;2023-08-12T06:56:15;0.70;;;0.30;;
82163;SDS011;71736;38.734;-9.138;2023-08-12T06:58:40;1.60;;;0.30;;
82163;SDS011;71736;38.734;-9.138;2023-08-12T07:01:06;1.30;;;0.20;;
82163;SDS011;71736;38.734;-9.138;2023-08-12T07:03:31;1.40;;;0.20;;
82163;SDS011;71736;38.734;-9.138;2023-08-12T07:05:58;0.60;;;0.10;;
82163;SDS011;71736;38.734;-9.138;2023-08-12T07:08:23;0.60;;;0.20;;
82163;SDS011;71736;38.734;-9.138;2023-08-12T07:10:49;0.30;;;0.10;;
82163;SDS011;71736;38.734;-9.138;2023-08-12T07:13:14;2.70;;;0.50;;
82163;SDS011;71736;38.734;-9.138;2023-08-12T07:15:40;1.30;;;0.20;;
82163;SDS011;71736;38.734;-9.138;2023-08-12T07:18:05;1.70;;;0.40;;
82163;SDS011;71736;38.734;-9.138;2023-08-12T07:20:31;1.50;;;0.60;;
82163;SDS011;71736;38.734;-9.138;2023-08-12T07:22:56;1.90;;;0.80;;
82163;SDS011;71736;38.734;-9.138;2023-08-12T07:25:22;0.70;;;0.40;;
82163;SDS011;71736;38.734;-9.138;2023-08-12T07:27:48;2.00;;;0.50;;
82163;SDS011;71736;38.734;-9.138;2023-08-12T07:30:13;1.30;;;0.40;;
82163;SDS011;71736;38.734;-9.138;2023-08-12T07:32:39;1.20;;;0.60;;
82163;SDS011;71736;38.734;-9.138;2023-08-12T07:35:05;1.40;;;0.50;;
82163;SDS011;71736;38.734;-9.138;2023-08-12T07:37:31;2.00;;;0.50;;
82163;SDS011;71736;38.734;-9.138;2023-08-12T07:39:56;0.90;;;0.40;;
82163;SDS011;71736;38.734;-9.138;2023-08-12T07:42:22;1.00;;;0.50;;
82163;SDS011;71736;38.734;-9.138;2023-08-12T07:44:48;1.80;;;0.80;;
82163;SDS011;71736;38.734;-9.138;2023-08-12T07:47:13;2.20;;;1.00;;
82163;SDS011;71736;38.734;-9.138;2023-08-12T07:49:40;1.30;;;0.50;;
82163;SDS011;71736;38.734;-9.138;2023-08-12T07:52:06;0.90;;;0.40;;
82163;SDS011;71736;38.734;-9.138;2023-08-12T07:54:31;0.90;;;0.20;;
82163;SDS011;71736;38.734;-9.138;2023-08-12T07:56:57;1.30;;;0.60;;
82163;SDS011;71736;38.734;-9.138;2023-08-12T07:59:22;1.30;;;0.40;;
82163;SDS011;71736;38.734;-9.138;2023-08-12T08:01:48;0.90;;;0.40;;
82163;SDS011;71736;38.734;-9.138;2023-08-12T08:04:13;1.60;;;0.40;;
82163;SDS011;71736;38.734;-9.138;2023-08-12T08:06:39;1.80;;;0.60;;
82163;SDS011;71736;38.734;-9.138;2023-08-12T08:09:05;1.20;;;0.40;;
82163;SDS011;71736;38.734;-9.138;2023-08-12T08:11:31;1.10;;;0.40;;
82163;SDS011;71736;38.734;-9.138;2023-08-12T08:13:59;2.00;;;0.70;;
82163;SDS011;71736;38.734;-9.138;2023-08-12T08:16:25;1.40;;;0.60;;
82163;SDS011;71736;38.734;-9.138;2023-08-12T08:18:50;1.40;;;0.40;;
82163;SDS011;71736;38.734;-9.138;2023-08-12T08:21:16;1.10;;;0.50;;
82163;SDS011;71736;38.734;-9.138;2023-08-12T08:23:41;1.60;;;0.50;;
82163;SDS011;71736;38.734;-9.138;2023-08-12T08:26:07;1.90;;;0.50;;
82163;SDS011;71736;38.734;-9.138;2023-08-12T08:28:33;1.40;;;0.70;;
82163;SDS011;71736;38.734;-9.138;2023-08-12T08:30:59;1.80;;;0.70;;
82163;SDS011;71736;38.734;-9.138;2023-08-12T08:33:25;1.60;;;0.60;;
82163;SDS011;71736;38.734;-9.138;2023-08-12T08:35:51;2.00;;;0.90;;
82163;SDS011;71736;38.734;-9.138;2023-08-12T08:38:16;2.50;;;0.90;;
82163;SDS011;71736;38.734;-9.138;2023-08-12T08:40:42;1.50;;;0.70;;
82163;SDS011;71736;38.734;-9.138;2023-08-12T08:43:08;1.30;;;0.60;;
82163;SDS011;71736;38.734;-9.138;2023-08-12T08:45:33;3.10;;;2.60;;
82163;SDS011;71736;38.734;-9.138;2023-08-12T08:47:59;1.60;;;0.70;;
82163;SDS011;71736;38.734;-9.138;2023-08-12T08:50:27;2.40;;;0.80;;
82163;SDS011;71736;38.734;-9.138;2023-08-12T08:52:54;2.10;;;0.80;;
82163;SDS011;71736;38.734;-9.138;2023-08-12T08:55:21;1.30;;;0.80;;
82163;SDS011;71736;38.734;-9.138;2023-08-12T08:57:47;2.70;;;1.20;;
82163;SDS011;71736;38.734;-9.138;2023-08-12T09:00:14;1.20;;;0.60;;
82163;SDS011;71736;38.734;-9.138;2023-08-12T09:02:41;2.30;;;0.90;;
82163;SDS011;71736;38.734;-9.138;2023-08-12T09:05:07;2.20;;;1.10;;
82163;SDS011;71736;38.734;-9.138;2023-08-12T09:07:33;2.80;;;1.20;;
82163;SDS011;71736;38.734;-9.138;2023-08-12T09:09:59;1.70;;;0.70;;
82163;SDS011;71736;38.734;-9.138;2023-08-12T09:12:26;2.40;;;0.70;;
82163;SDS011;71736;38.734;-9.138;2023-08-12T09:17:17;2.40;;;0.90;;
82163;SDS011;71736;38.734;-9.138;2023-08-12T09:19:43;1.80;;;0.80;;
82163;SDS011;71736;38.734;-9.138;2023-08-12T09:22:09;3.00;;;1.20;;
82163;SDS011;71736;38.734;-9.138;2023-08-12T09:24:35;1.90;;;0.70;;
82163;SDS011;71736;38.734;-9.138;2023-08-12T09:27:01;2.40;;;1.40;;
82163;SDS011;71736;38.734;-9.138;2023-08-12T09:29:30;2.80;;;1.10;;
82163;SDS011;71736;38.734;-9.138;2023-08-12T09:34:36;2.40;;;1.00;;
82163;SDS011;71736;38.734;-9.138;2023-08-12T09:39:28;1.70;;;0.90;;
82163;SDS011;71736;38.734;-9.138;2023-08-12T09:41:58;2.00;;;0.90;;
82163;SDS011;71736;38.734;-9.138;2023-08-12T09:44:25;2.30;;;0.80;;
82163;SDS011;71736;38.734;-9.138;2023-08-12T09:46:57;3.80;;;1.90;;
82163;SDS011;71736;38.734;-9.138;2023-08-12T09:49:24;2.70;;;0.70;;
82163;SDS011;71736;38.734;-9.138;2023-08-12T09:51:50;1.70;;;0.90;;
82163;SDS011;71736;38.734;-9.138;2023-08-12T09:54:17;1.60;;;0.80;;
82163;SDS011;71736;38.734;-9.138;2023-08-12T09:56:43;1.70;;;0.80;;
82163;SDS011;71736;38.734;-9.138;2023-08-12T09:59:12;1.70;;;0.80;;
82163;SDS011;71736;38.734;-9.138;2023-08-12T10:01:44;2.60;;;1.00;;
82163;SDS011;71736;38.734;-9.138;2023-08-12T10:04:11;2.90;;;1.30;;
82163;SDS011;71736;38.734;-9.138;2023-08-12T10:06:40;3.30;;;1.30;;
82163;SDS011;71736;38.734;-9.138;2023-08-12T10:09:06;2.50;;;1.00;;
82163;SDS011;71736;38.734;-9.138;2023-08-12T10:11:34;4.40;;;1.40;;
82163;SDS011;71736;38.734;-9.138;2023-08-12T10:14:00;6.40;;;1.80;;
82163;SDS011;71736;38.734;-9.138;2023-08-12T10:16:26;3.80;;;1.70;;
82163;SDS011;71736;38.734;-9.138;2023-08-12T10:18:54;6.70;;;2.70;;
82163;SDS011;71736;38.734;-9.138;2023-08-12T10:21:21;3.20;;;1.40;;
82163;SDS011;71736;38.734;-9.138;2023-08-12T10:23:48;3.10;;;1.30;;
82163;SDS011;71736;38.734;-9.138;2023-08-12T10:26:15;4.80;;;1.60;;
82163;SDS011;71736;38.734;-9.138;2023-08-12T10:28:42;3.80;;;1.40;;
82163;SDS011;71736;38.734;-9.138;2023-08-12T10:31:10;4.50;;;1.80;;
82163;SDS011;71736;38.734;-9.138;2023-08-12T10:33:37;2.20;;;1.30;;
82163;SDS011;71736;38.734;-9.138;2023-08-12T10:36:03;3.50;;;1.30;;
82163;SDS011;71736;38.734;-9.138;2023-08-12T10:38:30;5.40;;;2.00;;
82163;SDS011;71736;38.734;-9.138;2023-08-12T10:43:57;3.00;;;1.60;;
82163;SDS011;71736;38.734;-9.138;2023-08-12T10:49:06;3.30;;;1.70;;
82163;SDS011;71736;38.734;-9.138;2023-08-12T10:51:39;4.40;;;1.20;;
82163;SDS011;71736;38.734;-9.138;2023-08-12T10:54:18;3.10;;;1.40;;
82163;SDS011;71736;38.734;-9.138;2023-08-12T11:02:27;2.30;;;0.90;;
82163;SDS011;71736;38.734;-9.138;2023-08-12T11:05:01;2.40;;;1.50;;
82163;SDS011;71736;38.734;-9.138;2023-08-12T11:12:41;3.20;;;1.20;;
82163;SDS011;71736;38.734;-9.138;2023-08-12T11:15:08;4.80;;;1.20;;
82163;SDS011;71736;38.734;-9.138;2023-08-12T11:17:37;1.50;;;0.80;;
82163;SDS011;71736;38.734;-9.138;2023-08-12T11:20:05;2.90;;;1.50;;
82163;SDS011;71736;38.734;-9.138;2023-08-12T11:22:35;2.70;;;1.20;;
82163;SDS011;71736;38.734;-9.138;2023-08-12T11:25:03;3.40;;;1.00;;
82163;SDS011;71736;38.734;-9.138;2023-08-12T11:27:40;5.00;;;1.10;;
82163;SDS011;71736;38.734;-9.138;2023-08-12T11:30:10;2.30;;;1.20;;
82163;SDS011;71736;38.734;-9.138;2023-08-12T11:32:37;5.50;;;2.70;;
82163;SDS011;71736;38.734;-9.138;2023-08-12T11:35:04;3.10;;;1.40;;
82163;SDS011;71736;38.734;-9.138;2023-08-12T11:37:31;3.20;;;1.20;;
82163;SDS011;71736;38.734;-9.138;2023-08-12T11:42:22;2.20;;;1.00;;
82163;SDS011;71736;38.734;-9.138;2023-08-12T11:44:48;2.70;;;1.00;;
82163;SDS011;71736;38.734;-9.138;2023-08-12T11:47:13;3.10;;;1.30;;
82163;SDS011;71736;38.734;-9.138;2023-08-12T11:49:39;2.40;;;1.00;;
82163;SDS011;71736;38.734;-9.138;2023-08-12T11:52:04;3.60;;;1.50;;
82163;SDS011;71736;38.734;-9.138;2023-08-12T11:54:30;4.40;;;2.00;;
82163;SDS011;71736;38.734;-9.138;2023-08-12T11:56:56;3.50;;;1.60;;
82163;SDS011;71736;38.734;-9.138;2023-08-12T11:59:22;3.80;;;1.60;;
82163;SDS011;71736;38.734;-9.138;2023-08-12T12:01:48;3.60;;;1.80;;
82163;SDS011;71736;38.734;-9.138;2023-08-12T12:04:15;3.60;;;1.40;;
82163;SDS011;71736;38.734;-9.138;2023-08-12T12:06:41;2.40;;;1.40;;
82163;SDS011;71736;38.734;-9.138;2023-08-12T12:09:07;5.50;;;2.20;;
82163;SDS011;71736;38.734;-9.138;2023-08-12T12:11:38;4.30;;;2.00;;
82163;SDS011;71736;38.734;-9.138;2023-08-12T12:14:04;3.40;;;1.40;;
82163;SDS011;71736;38.734;-9.138;2023-08-12T12:16:38;2.70;;;1.30;;
82163;SDS011;71736;38.734;-9.138;2023-08-12T12:19:08;6.80;;;2.50;;
82163;SDS011;71736;38.734;-9.138;2023-08-12T12:21:47;4.60;;;1.40;;
82163;SDS011;71736;38.734;-9.138;2023-08-12T12:24:14;4.50;;;1.70;;
82163;SDS011;71736;38.734;-9.138;2023-08-12T12:26:40;3.10;;;1.30;;
82163;SDS011;71736;38.734;-9.138;2023-08-12T12:29:06;4.90;;;2.00;;
82163;SDS011;71736;38.734;-9.138;2023-08-12T12:31:32;3.20;;;1.50;;
82163;SDS011;71736;38.734;-9.138;2023-08-12T12:34:00;4.80;;;2.00;;
82163;SDS011;71736;38.734;-9.138;2023-08-12T12:36:26;2.80;;;1.40;;
82163;SDS011;71736;38.734;-9.138;2023-08-12T12:38:51;3.30;;;1.40;;
82163;SDS011;71736;38.734;-9.138;2023-08-12T12:41:17;2.30;;;1.10;;
82163;SDS011;71736;38.734;-9.138;2023-08-12T12:43:43;4.60;;;1.90;;
82163;SDS011;71736;38.734;-9.138;2023-08-12T12:46:08;3.80;;;1.40;;
82163;SDS011;71736;38.734;-9.138;2023-08-12T12:48:34;3.60;;;1.60;;
82163;SDS011;71736;38.734;-9.138;2023-08-12T12:50:59;3.30;;;1.40;;
82163;SDS011;71736;38.734;-9.138;2023-08-12T12:53:25;4.90;;;1.60;;
82163;SDS011;71736;38.734;-9.138;2023-08-12T12:55:50;4.00;;;1.30;;
82163;SDS011;71736;38.734;-9.138;2023-08-12T12:58:16;3.50;;;1.50;;
82163;SDS011;71736;38.734;-9.138;2023-08-12T13:00:42;3.40;;;1.80;;
82163;SDS011;71736;38.734;-9.138;2023-08-12T13:03:07;3.60;;;1.40;;
82163;SDS011;71736;38.734;-9.138;2023-08-12T13:05:33;2.30;;;1.20;;
82163;SDS011;71736;38.734;-9.138;2023-08-12T13:07:58;3.50;;;1.40;;
82163;SDS011;71736;38.734;-9.138;2023-08-12T13:10:24;3.30;;;1.20;;
82163;SDS011;71736;38.734;-9.138;2023-08-12T13:12:49;3.00;;;1.50;;
82163;SDS011;71736;38.734;-9.138;2023-08-12T13:15:15;3.60;;;1.40;;
82163;SDS011;71736;38.734;-9.138;2023-08-12T13:17:40;4.00;;;1.30;;
82163;SDS011;71736;38.734;-9.138;2023-08-12T13:20:06;4.80;;;1.60;;
82163;SDS011;71736;38.734;-9.138;2023-08-12T13:22:32;6.10;;;2.00;;
82163;SDS011;71736;38.734;-9.138;2023-08-12T13:24:58;3.10;;;1.40;;
82163;SDS011;71736;38.734;-9.138;2023-08-12T13:27:23;6.10;;;1.30;;
82163;SDS011;71736;38.734;-9.138;2023-08-12T13:29:49;4.00;;;1.50;;
82163;SDS011;71736;38.734;-9.138;2023-08-12T13:32:14;6.80;;;1.60;;
82163;SDS011;71736;38.734;-9.138;2023-08-12T13:34:41;5.20;;;1.40;;
82163;SDS011;71736;38.734;-9.138;2023-08-12T13:37:08;3.50;;;1.40;;
82163;SDS011;71736;38.734;-9.138;2023-08-12T13:39:34;4.00;;;1.10;;
82163;SDS011;71736;38.734;-9.138;2023-08-12T13:41:59;2.10;;;1.10;;
82163;SDS011;71736;38.734;-9.138;2023-08-12T13:44:25;3.60;;;1.30;;
82163;SDS011;71736;38.734;-9.138;2023-08-12T13:46:50;2.10;;;1.00;;
82163;SDS011;71736;38.734;-9.138;2023-08-12T13:49:16;3.30;;;1.10;;
82163;SDS011;71736;38.734;-9.138;2023-08-12T13:51:41;3.00;;;1.30;;
82163;SDS011;71736;38.734;-9.138;2023-08-12T13:54:07;4.20;;;1.30;;
82163;SDS011;71736;38.734;-9.138;2023-08-12T13:56:32;4.10;;;1.40;;
82163;SDS011;71736;38.734;-9.138;2023-08-12T13:58:58;2.30;;;0.80;;
82163;SDS011;71736;38.734;-9.138;2023-08-12T14:01:23;3.10;;;1.20;;
82163;SDS011;71736;38.734;-9.138;2023-08-12T14:03:49;3.80;;;1.10;;
82163;SDS011;71736;38.734;-9.138;2023-08-12T14:06:14;3.60;;;1.40;;
82163;SDS011;71736;38.734;-9.138;2023-08-12T14:08:40;4.00;;;1.30;;
82163;SDS011;71736;38.734;-9.138;2023-08-12T14:11:05;4.40;;;1.30;;
82163;SDS011;71736;38.734;-9.138;2023-08-12T14:13:31;4.80;;;1.40;;
82163;SDS011;71736;38.734;-9.138;2023-08-12T14:15:56;3.00;;;1.10;;
82163;SDS011;71736;38.734;-9.138;2023-08-12T14:18:22;3.70;;;1.30;;
82163;SDS011;71736;38.734;-9.138;2023-08-12T14:20:47;3.60;;;1.30;;
82163;SDS011;71736;38.734;-9.138;2023-08-12T14:23:13;4.80;;;1.70;;
82163;SDS011;71736;38.734;-9.138;2023-08-12T14:25:38;5.20;;;1.40;;
82163;SDS011;71736;38.734;-9.138;2023-08-12T14:28:04;4.50;;;1.60;;
82163;SDS011;71736;38.734;-9.138;2023-08-12T14:32:55;3.90;;;1.30;;
82163;SDS011;71736;38.734;-9.138;2023-08-12T14:35:21;3.50;;;1.30;;
82163;SDS011;71736;38.734;-9.138;2023-08-12T14:37:47;3.90;;;1.50;;
82163;SDS011;71736;38.734;-9.138;2023-08-12T14:40:13;5.00;;;1.10;;
82163;SDS011;71736;38.734;-9.138;2023-08-12T14:42:38;3.10;;;1.30;;
82163;SDS011;71736;38.734;-9.138;2023-08-12T14:45:04;3.20;;;1.10;;
82163;SDS011;71736;38.734;-9.138;2023-08-12T14:47:30;3.50;;;1.30;;
82163;SDS011;71736;38.734;-9.138;2023-08-12T14:49:55;4.90;;;1.70;;
82163;SDS011;71736;38.734;-9.138;2023-08-12T14:54:47;4.20;;;1.40;;
82163;SDS011;71736;38.734;-9.138;2023-08-12T14:57:13;3.80;;;1.30;;
82163;SDS011;71736;38.734;-9.138;2023-08-12T14:59:39;4.30;;;1.60;;
82163;SDS011;71736;38.734;-9.138;2023-08-12T15:02:04;3.30;;;1.20;;
82163;SDS011;71736;38.734;-9.138;2023-08-12T15:04:30;4.40;;;1.20;;
82163;SDS011;71736;38.734;-9.138;2023-08-12T15:06:56;3.50;;;1.30;;